Terminal Aerodrome Forecast
Issued by NWS

Home | Current Version | Previous Version | Text Only | Print | Product List | Glossary On
Versions: 1 2 3 4 5 6 7 8 9 10 11 12
549
FTUS43 KABR 232338
TAFATY
TAF
KATY 232338Z 2400/2424 VRB04KT P6SM SCT100
     FM241200 03012G23KT P6SM OVC080
     FM241600 03015G23KT 6SM -SHRA OVC045
     FM241800 04013G21KT P6SM OVC045
     FM242200 02013KT P6SM SCT080=

USA.gov is the U.S. government's official web portal to all federal, state and local government web resources and services.